Flight Number: EUR2195 Duration: 1:15
Departure: Munich Int'l (EDDM) at 08:15 Distance: 323 Nm
Arrival: Bruxelles National (EBBR) at 09:30 Equipment: A321

Weather Information
Munchen, Germany (EDDM) 48-21N 011-47E Nov 19, 2017 - 10:50 PM EST / 2017.11.20 0350 UTC
Wind: from the W (260 degrees) at 14 MPH (12 KT):0
Visibility: greater than 7 mile(s):0 Temperature: 35 F (2 C)
Windchill: 26 F (-3 C):1 Dew Point: 30 F (-1 C) Relative Humidity: 80% Pressure (altimeter): 30.15 in. Hg (1021 hPa)
ob: EDDM 200350Z 26012KT CAVOK 02/M01 Q1021 NOSIG cycle: 4
Sunrise: 06:32 Sunset: 15:24 (UTC)

Bruxelles National, Belgium (EBBR) 50-54N 004-32E 58M Nov 19, 2017 - 10:50 PM EST / 2017.11.20 0350 UTC
Wind: from the SSW (210 degrees) at 9 MPH (8 KT):0
Visibility: greater than 7 mile(s):0 Temperature: 37 F (3 C) Dew Point: 33 F (1 C) Relative Humidity: 86% Pressure (altimeter): 30.15 in. Hg (1021 hPa)
ob: EBBR 200350Z 21008KT CAVOK 03/01 Q1021 NOSIG cycle: 4
Sunrise: 07:11 Sunset: 15:44 (UTC)

TAF:2017/11/19 18:27 TAF TAF EBBR 191707Z 1918/2024 24008KT 9999 FEW030 BECMG 2010/2012 SCT008 BKN013 TEMPO 2811/2824 3000 DZRA BKN008 PROB30 TEMPO 2014/2017 24015G27KT

Previous Pireps for this route
Date Aircraft Flight time Fuel used Landing rate On time
2013-03-09A32101.1614686-411No
2013-06-15A3211.3311878-518Yes
2013-06-18A3211.0697550No
2013-09-13A3211.1099390No
2014-06-13A32101.137649-372Yes
2015-01-09B73701.427850-442Charter
2015-03-03B74701.2924949-268Charter
2015-05-22A32101.251036-158Yes
2015-11-25B73701.457886-152Charter
2016-10-16CRJ7001.2039490Charter
2017-11-07B73701.2540253-482Charter
(pireps marked green are flown by you)

Route map